sensor_id;sensor_type;location;lat;lon;timestamp;temperature;humidity
20057;DHT22;10189;49.546;7.906;2023-05-16T00:00:29;8.60;99.90
20057;DHT22;10189;49.546;7.906;2023-05-16T00:03:00;8.50;99.90
20057;DHT22;10189;49.546;7.906;2023-05-16T00:05:27;8.50;99.90
20057;DHT22;10189;49.546;7.906;2023-05-16T00:07:53;8.40;99.90
20057;DHT22;10189;49.546;7.906;2023-05-16T00:10:19;8.30;99.90
20057;DHT22;10189;49.546;7.906;2023-05-16T00:12:45;8.30;99.90
20057;DHT22;10189;49.546;7.906;2023-05-16T00:15:16;8.20;99.90
20057;DHT22;10189;49.546;7.906;2023-05-16T00:17:45;8.10;99.90
20057;DHT22;10189;49.546;7.906;2023-05-16T00:20:14;8.10;99.90
20057;DHT22;10189;49.546;7.906;2023-05-16T00:22:42;8.00;99.90
20057;DHT22;10189;49.546;7.906;2023-05-16T00:25:08;8.00;99.90
20057;DHT22;10189;49.546;7.906;2023-05-16T00:27:35;7.90;99.90
20057;DHT22;10189;49.546;7.906;2023-05-16T00:30:02;7.80;99.90
20057;DHT22;10189;49.546;7.906;2023-05-16T00:32:29;7.80;99.90
20057;DHT22;10189;49.546;7.906;2023-05-16T00:34:55;7.80;99.90
20057;DHT22;10189;49.546;7.906;2023-05-16T00:37:22;7.80;99.90
20057;DHT22;10189;49.546;7.906;2023-05-16T00:39:48;7.80;99.90
20057;DHT22;10189;49.546;7.906;2023-05-16T00:42:14;7.80;99.90
20057;DHT22;10189;49.546;7.906;2023-05-16T00:44:40;7.70;99.90
20057;DHT22;10189;49.546;7.906;2023-05-16T00:47:06;7.80;99.90
20057;DHT22;10189;49.546;7.906;2023-05-16T00:49:32;7.80;99.90
20057;DHT22;10189;49.546;7.906;2023-05-16T00:51:58;8.00;99.90
20057;DHT22;10189;49.546;7.906;2023-05-16T00:54:25;7.90;99.90
20057;DHT22;10189;49.546;7.906;2023-05-16T00:56:54;8.00;99.90
20057;DHT22;10189;49.546;7.906;2023-05-16T00:59:22;8.00;99.90
20057;DHT22;10189;49.546;7.906;2023-05-16T01:01:49;8.00;99.90
20057;DHT22;10189;49.546;7.906;2023-05-16T01:04:17;8.10;99.90
20057;DHT22;10189;49.546;7.906;2023-05-16T01:06:44;8.10;99.90
20057;DHT22;10189;49.546;7.906;2023-05-16T01:09:11;8.20;99.90
20057;DHT22;10189;49.546;7.906;2023-05-16T01:18:28;8.50;99.90
20057;DHT22;10189;49.546;7.906;2023-05-16T01:21:07;8.60;99.90
20057;DHT22;10189;49.546;7.906;2023-05-16T01:24:08;8.70;99.90
20057;DHT22;10189;49.546;7.906;2023-05-16T01:26:40;8.70;99.90
20057;DHT22;10189;49.546;7.906;2023-05-16T01:29:07;8.80;99.90
20057;DHT22;10189;49.546;7.906;2023-05-16T01:31:34;8.90;99.90
20057;DHT22;10189;49.546;7.906;2023-05-16T01:34:00;9.00;99.90
20057;DHT22;10189;49.546;7.906;2023-05-16T01:36:59;9.10;99.90
20057;DHT22;10189;49.546;7.906;2023-05-16T01:39:48;9.20;99.90
20057;DHT22;10189;49.546;7.906;2023-05-16T01:42:24;9.20;99.90
20057;DHT22;10189;49.546;7.906;2023-05-16T01:45:09;9.30;99.90
20057;DHT22;10189;49.546;7.906;2023-05-16T01:47:42;9.30;99.90
20057;DHT22;10189;49.546;7.906;2023-05-16T01:50:16;9.20;99.90
20057;DHT22;10189;49.546;7.906;2023-05-16T01:55:38;9.30;99.90
20057;DHT22;10189;49.546;7.906;2023-05-16T01:58:25;9.30;99.90
20057;DHT22;10189;49.546;7.906;2023-05-16T02:01:04;9.30;99.90
20057;DHT22;10189;49.546;7.906;2023-05-16T02:03:31;9.30;99.90
20057;DHT22;10189;49.546;7.906;2023-05-16T02:05:57;9.20;99.90
20057;DHT22;10189;49.546;7.906;2023-05-16T02:08:24;9.20;99.90
20057;DHT22;10189;49.546;7.906;2023-05-16T02:10:51;9.20;99.90
20057;DHT22;10189;49.546;7.906;2023-05-16T02:13:17;9.20;99.90
20057;DHT22;10189;49.546;7.906;2023-05-16T02:15:44;9.10;99.90
20057;DHT22;10189;49.546;7.906;2023-05-16T02:18:10;9.10;99.90
20057;DHT22;10189;49.546;7.906;2023-05-16T02:20:36;9.10;99.90
20057;DHT22;10189;49.546;7.906;2023-05-16T02:23:04;9.10;99.90
20057;DHT22;10189;49.546;7.906;2023-05-16T02:25:31;9.10;99.90
20057;DHT22;10189;49.546;7.906;2023-05-16T02:27:56;9.10;99.90
20057;DHT22;10189;49.546;7.906;2023-05-16T02:30:22;9.10;99.90
20057;DHT22;10189;49.546;7.906;2023-05-16T02:32:48;9.20;99.90
20057;DHT22;10189;49.546;7.906;2023-05-16T02:35:15;9.30;99.90
20057;DHT22;10189;49.546;7.906;2023-05-16T02:37:42;9.30;99.90
20057;DHT22;10189;49.546;7.906;2023-05-16T02:40:09;9.30;99.90
20057;DHT22;10189;49.546;7.906;2023-05-16T02:42:35;9.40;99.90
20057;DHT22;10189;49.546;7.906;2023-05-16T02:45:01;9.40;99.90
20057;DHT22;10189;49.546;7.906;2023-05-16T02:47:27;9.40;99.90
20057;DHT22;10189;49.546;7.906;2023-05-16T02:49:53;9.50;99.90
20057;DHT22;10189;49.546;7.906;2023-05-16T02:52:19;9.50;99.90
20057;DHT22;10189;49.546;7.906;2023-05-16T02:54:46;9.50;99.90
20057;DHT22;10189;49.546;7.906;2023-05-16T02:57:12;9.50;99.90
20057;DHT22;10189;49.546;7.906;2023-05-16T02:59:38;9.50;99.90
20057;DHT22;10189;49.546;7.906;2023-05-16T03:02:04;9.50;99.90
20057;DHT22;10189;49.546;7.906;2023-05-16T03:04:32;9.50;99.90
20057;DHT22;10189;49.546;7.906;2023-05-16T03:06:58;9.50;99.90
20057;DHT22;10189;49.546;7.906;2023-05-16T03:09:26;9.50;99.90
20057;DHT22;10189;49.546;7.906;2023-05-16T03:11:52;9.50;99.90
20057;DHT22;10189;49.546;7.906;2023-05-16T03:14:18;9.50;99.90
20057;DHT22;10189;49.546;7.906;2023-05-16T03:16:45;9.40;99.90
20057;DHT22;10189;49.546;7.906;2023-05-16T03:19:11;9.40;99.90
20057;DHT22;10189;49.546;7.906;2023-05-16T03:21:38;9.40;99.90
20057;DHT22;10189;49.546;7.906;2023-05-16T03:24:05;9.40;99.90
20057;DHT22;10189;49.546;7.906;2023-05-16T03:26:31;9.40;99.90
20057;DHT22;10189;49.546;7.906;2023-05-16T03:28:57;9.40;99.90
20057;DHT22;10189;49.546;7.906;2023-05-16T03:31:23;9.40;99.90
20057;DHT22;10189;49.546;7.906;2023-05-16T03:33:49;9.40;99.90
20057;DHT22;10189;49.546;7.906;2023-05-16T03:36:15;9.40;99.90
20057;DHT22;10189;49.546;7.906;2023-05-16T03:38:41;9.40;99.90
20057;DHT22;10189;49.546;7.906;2023-05-16T03:41:07;9.30;99.90
20057;DHT22;10189;49.546;7.906;2023-05-16T03:43:33;9.30;99.90
20057;DHT22;10189;49.546;7.906;2023-05-16T03:46:00;9.40;99.90
20057;DHT22;10189;49.546;7.906;2023-05-16T03:48:26;9.40;99.90
20057;DHT22;10189;49.546;7.906;2023-05-16T03:50:52;9.30;99.90
20057;DHT22;10189;49.546;7.906;2023-05-16T03:53:18;9.30;99.90
20057;DHT22;10189;49.546;7.906;2023-05-16T03:55:44;9.30;99.90
20057;DHT22;10189;49.546;7.906;2023-05-16T03:58:10;9.30;99.90
20057;DHT22;10189;49.546;7.906;2023-05-16T04:00:37;9.30;99.90
20057;DHT22;10189;49.546;7.906;2023-05-16T04:03:02;9.30;99.90
20057;DHT22;10189;49.546;7.906;2023-05-16T04:05:29;9.30;99.90
20057;DHT22;10189;49.546;7.906;2023-05-16T04:07:55;9.30;99.90
20057;DHT22;10189;49.546;7.906;2023-05-16T04:10:20;9.40;99.90
20057;DHT22;10189;49.546;7.906;2023-05-16T04:12:47;9.40;99.90
20057;DHT22;10189;49.546;7.906;2023-05-16T04:15:13;9.30;99.90
20057;DHT22;10189;49.546;7.906;2023-05-16T04:17:39;9.30;99.90
20057;DHT22;10189;49.546;7.906;2023-05-16T04:20:05;9.40;99.90
20057;DHT22;10189;49.546;7.906;2023-05-16T04:22:32;9.40;99.90
20057;DHT22;10189;49.546;7.906;2023-05-16T04:24:58;9.40;99.90
20057;DHT22;10189;49.546;7.906;2023-05-16T04:27:24;9.40;99.60
20057;DHT22;10189;49.546;7.906;2023-05-16T04:29:51;9.50;99.90
20057;DHT22;10189;49.546;7.906;2023-05-16T04:32:17;9.50;99.60
20057;DHT22;10189;49.546;7.906;2023-05-16T04:34:44;9.50;98.80
20057;DHT22;10189;49.546;7.906;2023-05-16T04:37:12;9.50;99.40
20057;DHT22;10189;49.546;7.906;2023-05-16T04:39:38;9.50;99.40
20057;DHT22;10189;49.546;7.906;2023-05-16T04:42:04;9.50;99.10
20057;DHT22;10189;49.546;7.906;2023-05-16T04:44:31;9.50;99.10
20057;DHT22;10189;49.546;7.906;2023-05-16T04:46:56;9.50;99.00
20057;DHT22;10189;49.546;7.906;2023-05-16T04:49:22;9.50;98.60
20057;DHT22;10189;49.546;7.906;2023-05-16T04:51:48;9.40;98.70
20057;DHT22;10189;49.546;7.906;2023-05-16T04:54:14;9.50;97.90
20057;DHT22;10189;49.546;7.906;2023-05-16T04:56:40;9.50;97.00
20057;DHT22;10189;49.546;7.906;2023-05-16T04:59:06;9.50;96.40
20057;DHT22;10189;49.546;7.906;2023-05-16T05:01:32;9.50;96.70
20057;DHT22;10189;49.546;7.906;2023-05-16T05:03:58;9.50;96.80
20057;DHT22;10189;49.546;7.906;2023-05-16T05:06:24;9.60;95.80
20057;DHT22;10189;49.546;7.906;2023-05-16T05:08:50;9.60;94.60
20057;DHT22;10189;49.546;7.906;2023-05-16T05:11:17;9.70;94.30
20057;DHT22;10189;49.546;7.906;2023-05-16T05:13:43;9.70;94.30
20057;DHT22;10189;49.546;7.906;2023-05-16T05:16:10;9.70;93.70
20057;DHT22;10189;49.546;7.906;2023-05-16T05:18:36;9.80;93.20
20057;DHT22;10189;49.546;7.906;2023-05-16T05:21:01;9.90;93.40
20057;DHT22;10189;49.546;7.906;2023-05-16T05:23:27;10.00;92.60
20057;DHT22;10189;49.546;7.906;2023-05-16T05:25:54;10.00;91.70
20057;DHT22;10189;49.546;7.906;2023-05-16T05:28:20;10.10;91.20
20057;DHT22;10189;49.546;7.906;2023-05-16T05:30:46;10.10;90.30
20057;DHT22;10189;49.546;7.906;2023-05-16T05:33:15;10.30;90.60
20057;DHT22;10189;49.546;7.906;2023-05-16T05:35:43;10.30;88.90
20057;DHT22;10189;49.546;7.906;2023-05-16T05:38:09;10.10;89.60
20057;DHT22;10189;49.546;7.906;2023-05-16T05:40:35;10.10;90.40
20057;DHT22;10189;49.546;7.906;2023-05-16T05:43:01;10.10;90.30
20057;DHT22;10189;49.546;7.906;2023-05-16T05:45:26;10.00;90.60
20057;DHT22;10189;49.546;7.906;2023-05-16T05:47:52;10.10;90.60
20057;DHT22;10189;49.546;7.906;2023-05-16T05:50:18;10.00;91.00
20057;DHT22;10189;49.546;7.906;2023-05-16T05:52:44;10.10;90.80
20057;DHT22;10189;49.546;7.906;2023-05-16T05:55:10;10.00;90.40
20057;DHT22;10189;49.546;7.906;2023-05-16T05:57:36;10.00;90.30
20057;DHT22;10189;49.546;7.906;2023-05-16T06:00:02;9.90;91.10
20057;DHT22;10189;49.546;7.906;2023-05-16T06:02:33;9.80;91.40
20057;DHT22;10189;49.546;7.906;2023-05-16T06:04:59;9.80;91.40
20057;DHT22;10189;49.546;7.906;2023-05-16T06:07:25;9.70;91.40
20057;DHT22;10189;49.546;7.906;2023-05-16T06:09:51;9.70;91.90
20057;DHT22;10189;49.546;7.906;2023-05-16T06:12:17;9.90;91.10
20057;DHT22;10189;49.546;7.906;2023-05-16T06:14:42;10.00;90.80
20057;DHT22;10189;49.546;7.906;2023-05-16T06:17:08;10.00;90.50
20057;DHT22;10189;49.546;7.906;2023-05-16T06:19:34;10.10;89.80
20057;DHT22;10189;49.546;7.906;2023-05-16T06:22:00;10.00;90.40
20057;DHT22;10189;49.546;7.906;2023-05-16T06:24:26;9.90;91.10
20057;DHT22;10189;49.546;7.906;2023-05-16T06:26:54;9.90;91.50
20057;DHT22;10189;49.546;7.906;2023-05-16T06:29:20;9.90;91.20
20057;DHT22;10189;49.546;7.906;2023-05-16T06:31:46;10.00;91.20
20057;DHT22;10189;49.546;7.906;2023-05-16T06:34:12;10.00;91.90
20057;DHT22;10189;49.546;7.906;2023-05-16T06:36:38;9.90;92.50
20057;DHT22;10189;49.546;7.906;2023-05-16T06:39:03;9.90;92.90
20057;DHT22;10189;49.546;7.906;2023-05-16T06:41:29;10.00;92.30
20057;DHT22;10189;49.546;7.906;2023-05-16T06:43:56;10.00;92.10
20057;DHT22;10189;49.546;7.906;2023-05-16T06:46:22;9.90;91.00
20057;DHT22;10189;49.546;7.906;2023-05-16T06:48:47;10.00;89.20
20057;DHT22;10189;49.546;7.906;2023-05-16T06:51:13;10.10;88.40
20057;DHT22;10189;49.546;7.906;2023-05-16T06:53:40;10.10;88.30
20057;DHT22;10189;49.546;7.906;2023-05-16T06:56:06;10.20;88.60
20057;DHT22;10189;49.546;7.906;2023-05-16T06:58:32;10.20;87.10
20057;DHT22;10189;49.546;7.906;2023-05-16T07:00:58;10.10;88.20
20057;DHT22;10189;49.546;7.906;2023-05-16T07:03:23;10.30;87.40
20057;DHT22;10189;49.546;7.906;2023-05-16T07:05:49;10.30;87.50
20057;DHT22;10189;49.546;7.906;2023-05-16T07:08:17;10.20;86.40
20057;DHT22;10189;49.546;7.906;2023-05-16T07:10:43;10.20;86.90
20057;DHT22;10189;49.546;7.906;2023-05-16T07:13:09;10.20;87.20
20057;DHT22;10189;49.546;7.906;2023-05-16T07:15:34;10.30;85.20
20057;DHT22;10189;49.546;7.906;2023-05-16T07:18:01;10.30;85.90
20057;DHT22;10189;49.546;7.906;2023-05-16T07:20:26;10.40;85.80
20057;DHT22;10189;49.546;7.906;2023-05-16T07:22:52;10.30;85.80
20057;DHT22;10189;49.546;7.906;2023-05-16T07:25:18;10.30;85.70
20057;DHT22;10189;49.546;7.906;2023-05-16T07:27:44;10.10;86.10
20057;DHT22;10189;49.546;7.906;2023-05-16T07:30:11;10.10;86.20
20057;DHT22;10189;49.546;7.906;2023-05-16T07:32:37;10.00;87.10
20057;DHT22;10189;49.546;7.906;2023-05-16T07:35:04;10.10;86.70
20057;DHT22;10189;49.546;7.906;2023-05-16T07:37:30;10.10;85.90
20057;DHT22;10189;49.546;7.906;2023-05-16T07:39:56;10.00;86.20
20057;DHT22;10189;49.546;7.906;2023-05-16T07:42:22;10.00;86.80
20057;DHT22;10189;49.546;7.906;2023-05-16T07:44:47;9.80;86.70
20057;DHT22;10189;49.546;7.906;2023-05-16T07:47:13;9.70;87.20
20057;DHT22;10189;49.546;7.906;2023-05-16T07:49:39;9.80;87.20
20057;DHT22;10189;49.546;7.906;2023-05-16T07:52:06;9.80;87.00
20057;DHT22;10189;49.546;7.906;2023-05-16T07:54:33;9.70;86.40
20057;DHT22;10189;49.546;7.906;2023-05-16T07:57:00;9.70;85.60
20057;DHT22;10189;49.546;7.906;2023-05-16T07:59:27;9.70;85.60
20057;DHT22;10189;49.546;7.906;2023-05-16T08:01:53;9.70;85.90
20057;DHT22;10189;49.546;7.906;2023-05-16T08:04:20;9.60;85.90
20057;DHT22;10189;49.546;7.906;2023-05-16T08:06:46;9.50;87.60
20057;DHT22;10189;49.546;7.906;2023-05-16T08:09:12;9.50;87.20
20057;DHT22;10189;49.546;7.906;2023-05-16T08:11:38;9.40;87.70
20057;DHT22;10189;49.546;7.906;2023-05-16T08:14:04;9.30;87.10
20057;DHT22;10189;49.546;7.906;2023-05-16T08:16:30;9.40;88.20
20057;DHT22;10189;49.546;7.906;2023-05-16T08:18:56;9.40;89.00
20057;DHT22;10189;49.546;7.906;2023-05-16T08:21:22;9.40;89.00
20057;DHT22;10189;49.546;7.906;2023-05-16T08:23:48;9.40;89.30
20057;DHT22;10189;49.546;7.906;2023-05-16T08:26:15;9.40;88.60
20057;DHT22;10189;49.546;7.906;2023-05-16T08:28:42;9.40;88.50
20057;DHT22;10189;49.546;7.906;2023-05-16T08:31:08;9.40;87.40
20057;DHT22;10189;49.546;7.906;2023-05-16T08:33:33;9.40;87.40
20057;DHT22;10189;49.546;7.906;2023-05-16T08:36:00;9.40;86.90
20057;DHT22;10189;49.546;7.906;2023-05-16T08:38:25;9.30;88.00
20057;DHT22;10189;49.546;7.906;2023-05-16T08:40:51;9.40;88.50
20057;DHT22;10189;49.546;7.906;2023-05-16T08:43:17;9.50;88.00
20057;DHT22;10189;49.546;7.906;2023-05-16T08:45:43;9.40;86.90
20057;DHT22;10189;49.546;7.906;2023-05-16T08:48:09;9.30;86.20
20057;DHT22;10189;49.546;7.906;2023-05-16T08:50:36;9.40;86.80
20057;DHT22;10189;49.546;7.906;2023-05-16T08:53:05;9.40;87.50
20057;DHT22;10189;49.546;7.906;2023-05-16T08:55:34;9.40;86.70
20057;DHT22;10189;49.546;7.906;2023-05-16T08:58:01;9.50;87.20
20057;DHT22;10189;49.546;7.906;2023-05-16T09:00:28;9.50;86.70
20057;DHT22;10189;49.546;7.906;2023-05-16T09:02:54;9.50;87.40
20057;DHT22;10189;49.546;7.906;2023-05-16T09:05:21;9.50;85.60
20057;DHT22;10189;49.546;7.906;2023-05-16T09:07:47;9.50;86.10
20057;DHT22;10189;49.546;7.906;2023-05-16T09:10:14;9.50;86.60
20057;DHT22;10189;49.546;7.906;2023-05-16T09:12:41;9.70;85.50
20057;DHT22;10189;49.546;7.906;2023-05-16T09:15:08;9.80;84.60
20057;DHT22;10189;49.546;7.906;2023-05-16T09:17:40;9.80;84.60
20057;DHT22;10189;49.546;7.906;2023-05-16T09:20:16;9.90;84.50
20057;DHT22;10189;49.546;7.906;2023-05-16T09:22:54;9.90;84.40
20057;DHT22;10189;49.546;7.906;2023-05-16T09:25:22;9.50;84.60
20057;DHT22;10189;49.546;7.906;2023-05-16T09:27:54;9.50;85.20
20057;DHT22;10189;49.546;7.906;2023-05-16T09:30:22;9.50;85.50
20057;DHT22;10189;49.546;7.906;2023-05-16T09:32:52;9.60;86.50
20057;DHT22;10189;49.546;7.906;2023-05-16T09:35:19;9.70;86.10
20057;DHT22;10189;49.546;7.906;2023-05-16T09:37:47;9.50;86.20
20057;DHT22;10189;49.546;7.906;2023-05-16T09:40:14;9.40;86.30
20057;DHT22;10189;49.546;7.906;2023-05-16T09:42:43;9.00;87.80
20057;DHT22;10189;49.546;7.906;2023-05-16T09:45:13;8.90;88.40
20057;DHT22;10189;49.546;7.906;2023-05-16T09:47:39;8.90;89.00
20057;DHT22;10189;49.546;7.906;2023-05-16T09:50:13;9.00;89.20
20057;DHT22;10189;49.546;7.906;2023-05-16T09:52:41;8.90;88.80
20057;DHT22;10189;49.546;7.906;2023-05-16T09:55:09;8.80;89.30
20057;DHT22;10189;49.546;7.906;2023-05-16T09:57:38;8.80;88.80
20057;DHT22;10189;49.546;7.906;2023-05-16T10:00:11;8.70;89.50
20057;DHT22;10189;49.546;7.906;2023-05-16T10:02:38;8.80;89.70
20057;DHT22;10189;49.546;7.906;2023-05-16T10:05:05;8.70;90.30
20057;DHT22;10189;49.546;7.906;2023-05-16T10:07:31;8.60;90.30
20057;DHT22;10189;49.546;7.906;2023-05-16T10:10:06;8.70;90.30
20057;DHT22;10189;49.546;7.906;2023-05-16T10:12:33;8.70;90.40
20057;DHT22;10189;49.546;7.906;2023-05-16T10:15:03;8.70;90.70
20057;DHT22;10189;49.546;7.906;2023-05-16T10:17:35;8.70;91.20
20057;DHT22;10189;49.546;7.906;2023-05-16T10:20:06;8.80;90.10
20057;DHT22;10189;49.546;7.906;2023-05-16T10:22:35;8.80;91.40
20057;DHT22;10189;49.546;7.906;2023-05-16T10:25:26;8.60;92.20
20057;DHT22;10189;49.546;7.906;2023-05-16T10:27:54;8.50;92.10
20057;DHT22;10189;49.546;7.906;2023-05-16T10:30:21;8.50;92.80
20057;DHT22;10189;49.546;7.906;2023-05-16T10:32:48;8.40;94.00
20057;DHT22;10189;49.546;7.906;2023-05-16T10:35:15;8.50;93.80
20057;DHT22;10189;49.546;7.906;2023-05-16T10:37:42;8.60;91.90
20057;DHT22;10189;49.546;7.906;2023-05-16T10:40:09;8.70;91.40
20057;DHT22;10189;49.546;7.906;2023-05-16T10:42:35;8.80;91.20
20057;DHT22;10189;49.546;7.906;2023-05-16T10:45:28;9.00;92.40
20057;DHT22;10189;49.546;7.906;2023-05-16T10:47:56;9.20;90.80
20057;DHT22;10189;49.546;7.906;2023-05-16T10:50:44;9.20;90.50
20057;DHT22;10189;49.546;7.906;2023-05-16T10:55:39;9.10;89.60
20057;DHT22;10189;49.546;7.906;2023-05-16T10:58:08;9.30;88.90
20057;DHT22;10189;49.546;7.906;2023-05-16T11:00:34;9.50;86.80
20057;DHT22;10189;49.546;7.906;2023-05-16T11:03:21;9.70;85.40
20057;DHT22;10189;49.546;7.906;2023-05-16T11:05:52;9.70;83.90
20057;DHT22;10189;49.546;7.906;2023-05-16T11:08:24;9.80;81.90
20057;DHT22;10189;49.546;7.906;2023-05-16T11:10:50;9.80;83.10
20057;DHT22;10189;49.546;7.906;2023-05-16T11:13:55;9.70;81.60
20057;DHT22;10189;49.546;7.906;2023-05-16T11:16:28;10.00;79.80
20057;DHT22;10189;49.546;7.906;2023-05-16T11:18:54;10.20;78.30
20057;DHT22;10189;49.546;7.906;2023-05-16T11:22:03;10.30;76.60
20057;DHT22;10189;49.546;7.906;2023-05-16T11:25:02;10.10;73.10
20057;DHT22;10189;49.546;7.906;2023-05-16T11:27:31;10.00;74.20
20057;DHT22;10189;49.546;7.906;2023-05-16T11:32:31;10.00;74.00
20057;DHT22;10189;49.546;7.906;2023-05-16T11:34:59;10.00;72.70
20057;DHT22;10189;49.546;7.906;2023-05-16T11:37:26;10.00;72.80
20057;DHT22;10189;49.546;7.906;2023-05-16T11:39:52;10.10;72.80
20057;DHT22;10189;49.546;7.906;2023-05-16T11:42:24;10.20;74.50
20057;DHT22;10189;49.546;7.906;2023-05-16T11:45:15;10.30;73.80
20057;DHT22;10189;49.546;7.906;2023-05-16T11:47:43;10.50;73.30
20057;DHT22;10189;49.546;7.906;2023-05-16T11:50:12;10.80;71.80
20057;DHT22;10189;49.546;7.906;2023-05-16T11:52:43;10.80;71.20
20057;DHT22;10189;49.546;7.906;2023-05-16T11:55:10;10.80;69.10
20057;DHT22;10189;49.546;7.906;2023-05-16T11:57:38;10.70;69.90
20057;DHT22;10189;49.546;7.906;2023-05-16T12:00:12;10.60;70.30
20057;DHT22;10189;49.546;7.906;2023-05-16T12:02:40;10.60;69.50
20057;DHT22;10189;49.546;7.906;2023-05-16T12:05:08;10.70;69.80
20057;DHT22;10189;49.546;7.906;2023-05-16T12:07:36;10.80;70.70
20057;DHT22;10189;49.546;7.906;2023-05-16T12:10:09;11.00;69.40
20057;DHT22;10189;49.546;7.906;2023-05-16T12:12:39;11.30;68.70
20057;DHT22;10189;49.546;7.906;2023-05-16T12:15:07;11.50;68.00
20057;DHT22;10189;49.546;7.906;2023-05-16T12:17:35;11.60;66.70
20057;DHT22;10189;49.546;7.906;2023-05-16T12:20:03;11.80;65.60
20057;DHT22;10189;49.546;7.906;2023-05-16T12:22:31;12.00;64.80
20057;DHT22;10189;49.546;7.906;2023-05-16T12:25:21;12.40;65.70
20057;DHT22;10189;49.546;7.906;2023-05-16T12:27:53;12.90;62.90
20057;DHT22;10189;49.546;7.906;2023-05-16T12:30:24;13.40;63.10
20057;DHT22;10189;49.546;7.906;2023-05-16T12:33:06;13.70;61.90
20057;DHT22;10189;49.546;7.906;2023-05-16T12:35:36;14.10;59.80
20057;DHT22;10189;49.546;7.906;2023-05-16T12:38:04;14.30;57.20
20057;DHT22;10189;49.546;7.906;2023-05-16T12:40:32;14.40;59.00
20057;DHT22;10189;49.546;7.906;2023-05-16T12:42:58;14.50;55.60
20057;DHT22;10189;49.546;7.906;2023-05-16T12:45:27;14.30;56.30
20057;DHT22;10189;49.546;7.906;2023-05-16T12:47:53;14.20;58.10
20057;DHT22;10189;49.546;7.906;2023-05-16T12:50:19;14.00;57.50
20057;DHT22;10189;49.546;7.906;2023-05-16T12:55:17;13.70;55.50
20057;DHT22;10189;49.546;7.906;2023-05-16T12:57:45;13.60;53.40
20057;DHT22;10189;49.546;7.906;2023-05-16T13:00:13;13.60;58.30
20057;DHT22;10189;49.546;7.906;2023-05-16T13:02:40;14.10;56.90
20057;DHT22;10189;49.546;7.906;2023-05-16T13:05:07;14.40;53.30
20057;DHT22;10189;49.546;7.906;2023-05-16T13:07:33;14.30;53.00
20057;DHT22;10189;49.546;7.906;2023-05-16T13:09:59;14.10;52.50
20057;DHT22;10189;49.546;7.906;2023-05-16T13:12:25;13.50;54.70
20057;DHT22;10189;49.546;7.906;2023-05-16T13:14:53;13.40;55.80
20057;DHT22;10189;49.546;7.906;2023-05-16T13:17:18;13.20;53.20
20057;DHT22;10189;49.546;7.906;2023-05-16T13:19:44;13.30;51.70
20057;DHT22;10189;49.546;7.906;2023-05-16T13:22:10;13.30;51.30
20057;DHT22;10189;49.546;7.906;2023-05-16T13:24:36;12.90;52.20
20057;DHT22;10189;49.546;7.906;2023-05-16T13:27:03;13.30;53.90
20057;DHT22;10189;49.546;7.906;2023-05-16T13:29:29;13.80;50.30
20057;DHT22;10189;49.546;7.906;2023-05-16T13:31:55;14.20;52.00
20057;DHT22;10189;49.546;7.906;2023-05-16T13:34:21;14.20;51.70
20057;DHT22;10189;49.546;7.906;2023-05-16T13:36:46;14.50;52.20
20057;DHT22;10189;49.546;7.906;2023-05-16T13:39:13;14.50;50.60
20057;DHT22;10189;49.546;7.906;2023-05-16T13:41:39;14.10;49.50
20057;DHT22;10189;49.546;7.906;2023-05-16T13:44:07;13.80;48.20
20057;DHT22;10189;49.546;7.906;2023-05-16T13:46:33;13.80;50.30
20057;DHT22;10189;49.546;7.906;2023-05-16T13:48:59;14.40;52.10
20057;DHT22;10189;49.546;7.906;2023-05-16T13:51:25;14.80;49.60
20057;DHT22;10189;49.546;7.906;2023-05-16T13:53:51;14.60;47.10
20057;DHT22;10189;49.546;7.906;2023-05-16T13:56:17;14.60;46.90
20057;DHT22;10189;49.546;7.906;2023-05-16T13:58:43;14.80;49.00
20057;DHT22;10189;49.546;7.906;2023-05-16T14:01:08;14.80;47.90
20057;DHT22;10189;49.546;7.906;2023-05-16T14:03:34;14.80;47.40
20057;DHT22;10189;49.546;7.906;2023-05-16T14:06:01;14.80;48.30
20057;DHT22;10189;49.546;7.906;2023-05-16T14:08:27;15.00;45.90
20057;DHT22;10189;49.546;7.906;2023-05-16T14:10:53;15.00;46.00
20057;DHT22;10189;49.546;7.906;2023-05-16T14:13:19;14.80;47.40
20057;DHT22;10189;49.546;7.906;2023-05-16T14:15:45;14.30;45.10
20057;DHT22;10189;49.546;7.906;2023-05-16T14:18:11;14.20;48.40
20057;DHT22;10189;49.546;7.906;2023-05-16T14:20:38;14.40;43.90
20057;DHT22;10189;49.546;7.906;2023-05-16T14:23:04;14.40;44.70
20057;DHT22;10189;49.546;7.906;2023-05-16T14:25:30;14.30;46.40
20057;DHT22;10189;49.546;7.906;2023-05-16T14:27:56;14.30;45.00
20057;DHT22;10189;49.546;7.906;2023-05-16T14:30:22;14.10;45.60
20057;DHT22;10189;49.546;7.906;2023-05-16T14:32:48;14.00;45.30
20057;DHT22;10189;49.546;7.906;2023-05-16T14:35:14;14.10;46.80
20057;DHT22;10189;49.546;7.906;2023-05-16T14:37:40;13.90;48.40
20057;DHT22;10189;49.546;7.906;2023-05-16T14:40:06;13.70;48.80
20057;DHT22;10189;49.546;7.906;2023-05-16T14:42:33;13.50;46.60
20057;DHT22;10189;49.546;7.906;2023-05-16T14:44:59;13.60;47.30
20057;DHT22;10189;49.546;7.906;2023-05-16T14:47:26;13.90;46.40
20057;DHT22;10189;49.546;7.906;2023-05-16T14:49:53;14.30;46.10
20057;DHT22;10189;49.546;7.906;2023-05-16T14:52:19;14.40;46.90
20057;DHT22;10189;49.546;7.906;2023-05-16T14:54:46;14.10;47.70
20057;DHT22;10189;49.546;7.906;2023-05-16T14:57:12;14.00;47.40
20057;DHT22;10189;49.546;7.906;2023-05-16T14:59:38;14.00;48.20
20057;DHT22;10189;49.546;7.906;2023-05-16T15:02:04;14.10;47.60
20057;DHT22;10189;49.546;7.906;2023-05-16T15:04:31;14.20;46.90
20057;DHT22;10189;49.546;7.906;2023-05-16T15:06:57;14.10;46.40
20057;DHT22;10189;49.546;7.906;2023-05-16T15:09:23;13.90;46.70
20057;DHT22;10189;49.546;7.906;2023-05-16T15:11:49;13.90;47.20
20057;DHT22;10189;49.546;7.906;2023-05-16T15:14:15;14.00;48.60
20057;DHT22;10189;49.546;7.906;2023-05-16T15:16:41;13.90;49.30
20057;DHT22;10189;49.546;7.906;2023-05-16T15:19:07;14.00;47.40
20057;DHT22;10189;49.546;7.906;2023-05-16T15:21:33;13.90;45.20
20057;DHT22;10189;49.546;7.906;2023-05-16T15:23:59;13.60;46.40
20057;DHT22;10189;49.546;7.906;2023-05-16T15:26:25;13.50;45.60
20057;DHT22;10189;49.546;7.906;2023-05-16T15:28:51;13.30;47.60
20057;DHT22;10189;49.546;7.906;2023-05-16T15:31:16;13.20;49.00
20057;DHT22;10189;49.546;7.906;2023-05-16T15:33:42;13.30;48.30
20057;DHT22;10189;49.546;7.906;2023-05-16T15:36:09;13.40;47.90
20057;DHT22;10189;49.546;7.906;2023-05-16T15:38:35;13.50;47.00
20057;DHT22;10189;49.546;7.906;2023-05-16T15:41:01;13.80;47.20
20057;DHT22;10189;49.546;7.906;2023-05-16T15:43:31;13.90;46.00
20057;DHT22;10189;49.546;7.906;2023-05-16T15:45:56;13.80;45.30
20057;DHT22;10189;49.546;7.906;2023-05-16T15:48:22;13.70;45.20
20057;DHT22;10189;49.546;7.906;2023-05-16T15:50:48;13.40;46.00
20057;DHT22;10189;49.546;7.906;2023-05-16T15:53:14;13.30;47.90
20057;DHT22;10189;49.546;7.906;2023-05-16T15:55:40;13.20;48.40
20057;DHT22;10189;49.546;7.906;2023-05-16T15:58:05;13.20;47.90
20057;DHT22;10189;49.546;7.906;2023-05-16T16:00:31;13.10;47.20